Time;durP1;ratioP1;P1;durP2;ratioP2;P2;SDS_P1;SDS_P2;PMS_P1;PMS_P2;Temp;Humidity;BMP_temperature;BMP_pressure;BME280_temperature;BME280_humidity;BME280_pressure;Samples;Min_cycle;Max_cycle;Signal;HPM_P1;HPM_P2
2023/04/04 00:00:07;;;;;;;8.30;2.95;;;3.00;99.90;;;;;;5032585;28;20022;-68
2023/04/04 00:02:33;;;;;;;6.13;2.47;;;3.00;99.90;;;;;;5031467;28;20117;-70
2023/04/04 00:04:59;;;;;;;6.05;2.25;;;3.00;99.90;;;;;;5032498;28;20483;-71
2023/04/04 00:07:25;;;;;;;5.82;2.55;;;3.00;99.90;;;;;;5032526;28;20034;-71
2023/04/04 00:09:50;;;;;;;8.23;2.40;;;2.90;99.90;;;;;;5031312;28;20382;-72
2023/04/04 00:12:16;;;;;;;7.25;2.47;;;3.00;99.90;;;;;;5030762;28;20046;-72
2023/04/04 00:14:42;;;;;;;6.95;2.25;;;2.90;99.90;;;;;;5032285;28;20030;-70
2023/04/04 00:17:08;;;;;;;6.45;2.20;;;2.90;99.90;;;;;;5031874;28;20072;-71
2023/04/04 00:19:34;;;;;;;15.70;3.03;;;2.90;99.90;;;;;;5032417;28;20034;-70
2023/04/04 00:22:00;;;;;;;7.10;2.80;;;2.80;99.90;;;;;;5031479;28;20067;-72
2023/04/04 00:24:25;;;;;;;7.35;2.30;;;2.80;99.90;;;;;;5032647;28;20037;-71
2023/04/04 00:26:51;;;;;;;6.63;2.13;;;2.80;99.90;;;;;;5032024;28;20085;-71
2023/04/04 00:29:16;;;;;;;11.73;2.80;;;2.80;99.90;;;;;;5032219;28;20031;-69
2023/04/04 00:31:42;;;;;;;11.35;2.70;;;2.80;99.90;;;;;;5030580;28;20077;-71
2023/04/04 00:34:08;;;;;;;7.32;2.72;;;2.80;99.90;;;;;;5031593;28;20460;-71
2023/04/04 00:36:33;;;;;;;7.40;2.60;;;2.70;99.90;;;;;;5030802;28;20072;-70
2023/04/04 00:38:59;;;;;;;9.18;2.60;;;2.60;99.90;;;;;;5032516;28;20080;-71
2023/04/04 00:41:24;;;;;;;9.43;3.00;;;2.50;99.90;;;;;;5032295;28;20030;-71
2023/04/04 00:43:50;;;;;;;11.57;2.95;;;2.50;99.90;;;;;;5031948;28;20022;-72
2023/04/04 00:46:17;;;;;;;6.45;2.67;;;2.50;99.90;;;;;;5032004;28;20042;-70
2023/04/04 00:48:43;;;;;;;13.77;2.90;;;2.50;99.90;;;;;;5032241;28;20018;-71
2023/04/04 00:51:09;;;;;;;9.50;2.72;;;2.50;99.90;;;;;;5032067;28;20022;-71
2023/04/04 00:53:36;;;;;;;10.82;3.22;;;2.40;99.90;;;;;;5031746;28;20033;-73
2023/04/04 00:56:01;;;;;;;5.57;2.70;;;2.40;99.90;;;;;;5032195;28;20033;-71
2023/04/04 00:58:28;;;;;;;9.27;2.85;;;2.30;99.90;;;;;;5032181;28;20021;-71
2023/04/04 01:00:53;;;;;;;10.60;2.92;;;2.30;99.90;;;;;;5032255;28;20030;-69
2023/04/04 01:03:19;;;;;;;6.85;2.67;;;2.30;99.90;;;;;;5031690;28;20569;-71
2023/04/04 01:05:45;;;;;;;8.48;3.08;;;2.30;99.90;;;;;;5031885;28;20119;-71
2023/04/04 01:08:11;;;;;;;10.05;3.10;;;2.20;99.90;;;;;;5031846;28;20041;-70
2023/04/04 01:10:38;;;;;;;7.35;2.83;;;2.20;99.90;;;;;;5031798;28;20056;-69
2023/04/04 01:13:04;;;;;;;8.00;2.75;;;2.20;99.90;;;;;;5031475;28;20033;-72
2023/04/04 01:15:30;;;;;;;8.43;3.28;;;2.10;99.90;;;;;;5031740;28;20026;-70
2023/04/04 01:18:01;;;;;;;11.10;2.85;;;2.10;99.90;;;;;;5032154;28;20075;-70
2023/04/04 01:20:29;;;;;;;9.48;3.03;;;2.00;99.90;;;;;;5030857;28;20037;-70
2023/04/04 01:22:56;;;;;;;8.43;3.03;;;2.00;99.90;;;;;;5033131;28;20089;-71
2023/04/04 01:25:30;;;;;;;8.98;3.00;;;1.90;99.90;;;;;;5035820;28;20026;-70
2023/04/04 01:27:57;;;;;;;11.85;2.80;;;1.90;99.90;;;;;;5035365;28;20030;-70
2023/04/04 01:30:26;;;;;;;6.78;3.00;;;1.90;99.90;;;;;;5035425;28;20066;-72
2023/04/04 01:32:58;;;;;;;11.27;2.88;;;1.90;99.90;;;;;;5034846;28;20097;-70
2023/04/04 01:35:51;;;;;;;7.18;3.15;;;1.80;99.90;;;;;;5033954;28;20028;-73
2023/04/04 01:38:50;;;;;;;13.73;3.10;;;1.90;99.90;;;;;;5034685;28;20054;-71
2023/04/04 01:41:17;;;;;;;7.55;2.80;;;1.80;99.90;;;;;;5035331;28;20104;-72
2023/04/04 01:43:46;;;;;;;6.15;2.60;;;1.70;99.90;;;;;;5035337;28;20032;-71
2023/04/04 01:46:12;;;;;;;9.25;3.03;;;1.80;99.90;;;;;;5035353;28;20034;-71
2023/04/04 01:48:38;;;;;;;10.35;3.22;;;1.70;99.90;;;;;;5034978;28;20105;-70
2023/04/04 01:51:04;;;;;;;14.55;3.50;;;1.70;99.90;;;;;;5033715;28;20026;-72
2023/04/04 01:53:29;;;;;;;7.72;3.00;;;1.70;99.90;;;;;;5033670;28;20022;-70
2023/04/04 01:55:55;;;;;;;10.65;3.20;;;1.80;99.90;;;;;;5035194;28;20030;-70
2023/04/04 01:58:21;;;;;;;9.13;3.30;;;1.70;99.90;;;;;;5035060;28;20037;-70
2023/04/04 02:00:47;;;;;;;9.43;3.03;;;1.70;99.90;;;;;;5034892;28;20077;-70
2023/04/04 02:03:12;;;;;;;10.43;3.13;;;1.70;99.90;;;;;;5034666;28;20041;-70
2023/04/04 02:05:38;;;;;;;8.57;3.60;;;1.70;99.90;;;;;;5034684;28;20076;-74
2023/04/04 02:08:04;;;;;;;9.73;3.25;;;1.60;99.90;;;;;;5031542;28;20048;-71
2023/04/04 02:10:30;;;;;;;8.73;3.17;;;1.60;99.90;;;;;;5032606;28;20049;-71
2023/04/04 02:12:56;;;;;;;7.60;3.10;;;1.60;99.90;;;;;;5033600;28;20037;-72
2023/04/04 02:15:22;;;;;;;7.72;3.35;;;1.50;99.90;;;;;;5032033;28;20025;-70
2023/04/04 02:17:48;;;;;;;8.70;2.92;;;1.50;99.90;;;;;;5031988;28;20076;-69
2023/04/04 02:20:15;;;;;;;10.60;2.97;;;1.50;99.90;;;;;;5031357;28;20014;-69
2023/04/04 02:22:41;;;;;;;10.50;3.45;;;1.50;99.90;;;;;;5032861;28;20057;-71
2023/04/04 02:25:06;;;;;;;6.50;2.67;;;1.50;99.90;;;;;;5032428;28;20030;-70
2023/04/04 02:27:33;;;;;;;8.45;2.85;;;1.40;99.90;;;;;;5032551;28;20033;-72
2023/04/04 02:29:58;;;;;;;7.03;2.78;;;1.40;99.90;;;;;;5031171;28;20037;-72
2023/04/04 02:32:24;;;;;;;8.85;3.45;;;1.40;99.90;;;;;;5032333;28;20025;-70
2023/04/04 02:34:50;;;;;;;12.55;3.20;;;1.40;99.90;;;;;;5032524;28;20561;-71
2023/04/04 02:37:16;;;;;;;6.63;3.05;;;1.40;99.90;;;;;;5032453;28;20056;-70
2023/04/04 02:39:42;;;;;;;7.72;3.45;;;1.40;99.90;;;;;;5031974;28;20049;-70
2023/04/04 02:42:07;;;;;;;8.38;3.33;;;1.40;99.90;;;;;;5032407;28;20301;-69
2023/04/04 02:44:33;;;;;;;7.72;3.42;;;1.40;99.90;;;;;;5031186;28;20037;-71
2023/04/04 02:46:58;;;;;;;10.18;3.30;;;1.40;99.90;;;;;;5031016;28;20128;-70
2023/04/04 02:49:28;;;;;;;9.10;3.78;;;1.40;99.90;;;;;;5032812;28;20017;-70
2023/04/04 02:51:54;;;;;;;10.07;3.65;;;1.40;99.90;;;;;;5032897;28;20053;-68
2023/04/04 02:54:19;;;;;;;13.15;3.72;;;1.40;99.90;;;;;;5031969;28;20557;-69
2023/04/04 02:56:45;;;;;;;8.40;4.47;;;1.30;99.90;;;;;;5031611;28;20037;-70
2023/04/04 02:59:11;;;;;;;10.40;3.90;;;1.30;99.90;;;;;;5032105;28;20068;-69
2023/04/04 03:01:36;;;;;;;13.13;3.60;;;1.30;99.90;;;;;;5032057;28;20033;-71
2023/04/04 03:04:03;;;;;;;11.63;3.90;;;1.30;99.90;;;;;;5030922;28;20044;-73
2023/04/04 03:06:31;;;;;;;9.15;4.15;;;1.30;99.90;;;;;;5031943;28;20091;-71
2023/04/04 03:08:57;;;;;;;11.20;4.70;;;1.30;99.90;;;;;;5032384;28;20049;-71
2023/04/04 03:11:23;;;;;;;11.77;4.35;;;1.30;99.90;;;;;;5030481;28;20049;-70
2023/04/04 03:13:50;;;;;;;9.75;4.53;;;1.30;99.90;;;;;;5030969;28;20058;-69
2023/04/04 03:16:18;;;;;;;11.75;4.25;;;1.30;99.90;;;;;;5032414;28;20018;-71
2023/04/04 03:18:44;;;;;;;11.15;4.53;;;1.30;99.90;;;;;;5032212;28;20150;-71
2023/04/04 03:21:09;;;;;;;9.20;4.45;;;1.30;99.90;;;;;;5030598;28;20085;-71
2023/04/04 03:23:35;;;;;;;8.40;4.00;;;1.30;99.90;;;;;;5032363;28;20022;-69
2023/04/04 03:26:01;;;;;;;8.60;4.43;;;1.30;99.90;;;;;;5031484;28;20037;-70
2023/04/04 03:28:26;;;;;;;13.23;4.95;;;1.30;99.90;;;;;;5031871;28;20036;-70
2023/04/04 03:30:52;;;;;;;9.82;4.40;;;1.30;99.90;;;;;;5031863;28;20049;-69
2023/04/04 03:33:18;;;;;;;11.05;4.82;;;1.30;99.90;;;;;;5031909;28;20022;-72
2023/04/04 03:35:43;;;;;;;10.60;4.68;;;1.30;99.90;;;;;;5032089;28;20026;-70
2023/04/04 03:38:09;;;;;;;12.63;4.55;;;1.30;99.90;;;;;;5031093;28;20081;-70
2023/04/04 03:40:35;;;;;;;8.52;4.65;;;1.30;99.90;;;;;;5029513;28;20479;-71
2023/04/04 03:43:01;;;;;;;16.08;5.32;;;1.20;99.90;;;;;;5030166;28;20049;-69
2023/04/04 03:45:29;;;;;;;14.90;4.93;;;1.20;99.90;;;;;;5031028;28;20060;-72
2023/04/04 03:47:55;;;;;;;13.32;5.15;;;1.20;99.90;;;;;;5031497;28;20021;-69
2023/04/04 03:50:20;;;;;;;9.90;5.00;;;1.20;99.90;;;;;;5031194;28;20021;-71
2023/04/04 03:52:46;;;;;;;13.68;5.45;;;1.10;99.90;;;;;;5030139;28;20026;-69
2023/04/04 03:55:12;;;;;;;9.50;5.05;;;1.10;99.90;;;;;;5031234;28;20029;-72
2023/04/04 03:57:37;;;;;;;14.90;5.88;;;1.10;99.90;;;;;;5031029;28;20081;-72
2023/04/04 04:00:04;;;;;;;15.77;5.30;;;1.00;99.90;;;;;;5032884;28;20030;-69
2023/04/04 04:02:30;;;;;;;13.55;5.65;;;1.00;99.90;;;;;;5030757;28;20030;-68
2023/04/04 04:04:55;;;;;;;12.70;5.50;;;1.00;99.90;;;;;;5030954;28;20096;-70
2023/04/04 04:07:21;;;;;;;13.98;5.20;;;1.00;99.90;;;;;;5031983;28;20037;-70
2023/04/04 04:09:46;;;;;;;11.50;5.80;;;1.00;99.90;;;;;;5032247;28;20124;-72
2023/04/04 04:12:12;;;;;;;15.35;5.32;;;1.00;99.90;;;;;;5031887;28;20029;-73
2023/04/04 04:14:37;;;;;;;11.88;5.40;;;1.00;99.90;;;;;;5031579;28;20026;-70
2023/04/04 04:17:03;;;;;;;15.13;5.75;;;1.10;99.90;;;;;;5032032;28;20028;-70
2023/04/04 04:19:28;;;;;;;13.23;6.13;;;1.10;99.90;;;;;;5032226;28;20045;-69
2023/04/04 04:21:54;;;;;;;13.50;5.80;;;1.00;99.90;;;;;;5032184;28;20025;-73
2023/04/04 04:24:20;;;;;;;10.93;5.40;;;1.00;99.90;;;;;;5030928;28;20917;-70
2023/04/04 04:26:45;;;;;;;13.45;5.35;;;1.00;99.90;;;;;;5031300;28;20073;-71
2023/04/04 04:29:11;;;;;;;19.20;6.03;;;1.00;99.90;;;;;;5030853;28;20017;-70
2023/04/04 04:31:38;;;;;;;10.38;5.30;;;1.00;99.90;;;;;;5032473;28;20025;-69
2023/04/04 04:34:09;;;;;;;9.88;5.55;;;1.00;99.90;;;;;;5031163;28;20022;-69
2023/04/04 04:36:35;;;;;;;10.95;5.53;;;1.00;99.90;;;;;;5031511;28;20036;-70
2023/04/04 04:39:01;;;;;;;14.43;5.20;;;1.00;99.90;;;;;;5032507;28;20029;-69
2023/04/04 04:41:28;;;;;;;14.18;5.05;;;0.90;99.90;;;;;;5032256;28;20025;-70
2023/04/04 04:43:54;;;;;;;13.02;5.30;;;0.90;99.90;;;;;;5031630;28;20030;-69
2023/04/04 04:46:20;;;;;;;12.48;5.43;;;0.90;99.90;;;;;;5031886;28;20033;-68
2023/04/04 04:48:45;;;;;;;13.93;5.07;;;0.90;99.90;;;;;;5031504;28;20017;-69
2023/04/04 04:51:12;;;;;;;11.93;5.38;;;0.90;99.90;;;;;;5032028;28;20124;-71
2023/04/04 04:53:38;;;;;;;13.40;5.40;;;0.90;99.90;;;;;;5031708;28;20014;-68
2023/04/04 04:56:04;;;;;;;12.27;5.70;;;0.90;99.90;;;;;;5030528;28;20120;-68
2023/04/04 04:58:29;;;;;;;10.82;5.97;;;0.90;99.90;;;;;;5034973;28;20029;-68
2023/04/04 05:00:58;;;;;;;12.55;6.38;;;0.90;99.90;;;;;;5036193;28;20051;-69
2023/04/04 05:03:24;;;;;;;15.63;6.00;;;0.80;99.90;;;;;;5036029;28;20037;-68
2023/04/04 05:05:50;;;;;;;14.23;6.45;;;0.80;99.90;;;;;;5036019;28;20061;-69
2023/04/04 05:08:16;;;;;;;15.55;6.15;;;0.80;99.90;;;;;;5035636;28;20076;-69
2023/04/04 05:10:42;;;;;;;13.27;6.13;;;0.80;99.90;;;;;;5035138;28;20021;-69
2023/04/04 05:13:08;;;;;;;14.35;6.32;;;0.70;99.90;;;;;;5031132;28;20026;-69
2023/04/04 05:15:34;;;;;;;13.38;6.25;;;0.80;99.90;;;;;;5035986;28;20047;-71
2023/04/04 05:18:00;;;;;;;12.57;6.18;;;0.70;99.90;;;;;;5035621;28;20113;-70
2023/04/04 05:20:26;;;;;;;13.43;6.55;;;0.80;99.90;;;;;;5035475;28;20026;-68
2023/04/04 05:22:52;;;;;;;16.40;6.60;;;0.70;99.90;;;;;;5033851;28;20462;-68
2023/04/04 05:25:17;;;;;;;14.30;6.50;;;0.80;99.90;;;;;;5032993;28;20073;-70
2023/04/04 05:27:47;;;;;;;14.20;6.43;;;0.80;99.90;;;;;;5031189;28;20446;-69
2023/04/04 05:30:13;;;;;;;14.25;6.45;;;0.80;99.90;;;;;;5030942;28;20022;-69
2023/04/04 05:32:39;;;;;;;13.98;6.93;;;0.80;99.90;;;;;;5030458;28;20422;-69
2023/04/04 05:35:05;;;;;;;13.43;6.80;;;0.80;99.90;;;;;;5034637;28;20018;-69
2023/04/04 05:37:31;;;;;;;11.30;6.35;;;0.80;99.90;;;;;;5032537;28;20049;-68
2023/04/04 05:39:56;;;;;;;12.00;6.22;;;0.90;99.90;;;;;;5032828;28;20541;-72
2023/04/04 05:42:22;;;;;;;13.45;6.20;;;0.90;99.90;;;;;;5032881;28;20098;-69
2023/04/04 05:44:47;;;;;;;13.45;6.85;;;1.00;99.90;;;;;;5034131;28;20060;-68
2023/04/04 05:47:13;;;;;;;13.65;7.07;;;1.00;99.90;;;;;;5033852;28;20048;-70
2023/04/04 05:49:39;;;;;;;16.60;6.28;;;1.10;99.90;;;;;;5033348;28;20029;-70
2023/04/04 05:52:05;;;;;;;18.20;6.35;;;1.10;99.90;;;;;;5035088;28;20046;-68
2023/04/04 05:54:30;;;;;;;13.48;5.75;;;1.20;99.90;;;;;;5035261;28;20026;-70
2023/04/04 05:56:56;;;;;;;11.32;5.55;;;1.30;99.90;;;;;;5035044;28;20032;-72
2023/04/04 05:59:21;;;;;;;15.60;5.18;;;1.40;99.90;;;;;;5034196;28;20025;-70
2023/04/04 06:01:47;;;;;;;11.82;4.82;;;1.50;99.90;;;;;;5033807;28;20549;-69
2023/04/04 06:04:12;;;;;;;12.32;5.40;;;1.50;99.90;;;;;;5035059;28;20055;-69
2023/04/04 06:06:38;;;;;;;12.55;5.10;;;1.60;99.90;;;;;;5034475;28;20034;-71
2023/04/04 06:09:04;;;;;;;10.05;4.57;;;1.60;99.90;;;;;;5033893;28;20108;-70
2023/04/04 06:11:30;;;;;;;9.60;4.20;;;1.70;99.90;;;;;;5034945;28;20129;-69
2023/04/04 06:13:55;;;;;;;12.93;4.55;;;1.80;99.90;;;;;;5034672;28;20036;-69
2023/04/04 06:16:21;;;;;;;11.43;4.70;;;1.80;99.90;;;;;;5034576;28;20037;-68
2023/04/04 06:18:47;;;;;;;9.15;4.32;;;1.90;99.90;;;;;;5034681;28;20021;-70
2023/04/04 06:21:13;;;;;;;14.68;4.97;;;1.90;99.90;;;;;;5033918;28;20467;-69
2023/04/04 06:23:39;;;;;;;14.23;4.82;;;2.00;99.90;;;;;;5033937;28;20037;-72
2023/04/04 06:26:05;;;;;;;12.73;4.75;;;2.10;99.90;;;;;;5034538;28;20047;-69
2023/04/04 06:28:31;;;;;;;12.35;4.80;;;2.20;99.90;;;;;;5034559;28;20056;-69
2023/04/04 06:30:57;;;;;;;10.98;4.65;;;2.20;99.90;;;;;;5030840;28;20026;-68
2023/04/04 06:33:23;;;;;;;13.88;4.28;;;2.40;99.90;;;;;;5030054;28;20049;-67
2023/04/04 06:35:48;;;;;;;16.83;4.22;;;2.40;99.90;;;;;;5033299;28;20060;-70
2023/04/04 06:38:14;;;;;;;9.73;3.42;;;2.40;99.90;;;;;;5030316;28;20116;-69
2023/04/04 06:40:39;;;;;;;8.70;3.40;;;2.50;99.90;;;;;;5033085;28;20101;-70
2023/04/04 06:43:05;;;;;;;11.13;3.53;;;2.50;99.90;;;;;;5032858;28;20025;-70
2023/04/04 06:45:32;;;;;;;5.93;3.28;;;2.60;99.90;;;;;;5032791;28;20028;-70
2023/04/04 06:47:58;;;;;;;11.40;3.53;;;2.70;99.90;;;;;;5033121;28;20018;-71
2023/04/04 06:50:24;;;;;;;9.10;3.42;;;2.70;99.90;;;;;;5033249;28;20097;-70
2023/04/04 06:52:51;;;;;;;8.07;3.10;;;2.70;99.90;;;;;;5032534;28;20128;-68
2023/04/04 06:55:17;;;;;;;9.27;3.00;;;2.70;99.90;;;;;;5032911;28;20056;-70
2023/04/04 06:57:43;;;;;;;10.95;3.47;;;2.70;99.90;;;;;;5032806;28;20032;-68
2023/04/04 07:00:09;;;;;;;8.65;4.03;;;2.80;99.90;;;;;;5032459;28;21349;-68
2023/04/04 07:02:35;;;;;;;11.27;3.58;;;2.90;99.90;;;;;;5033700;28;20053;-69
2023/04/04 07:05:03;;;;;;;7.53;3.58;;;2.90;99.90;;;;;;5031862;28;20037;-69
2023/04/04 07:07:28;;;;;;;12.15;3.53;;;3.00;99.90;;;;;;5033422;28;20038;-69
2023/04/04 07:09:55;;;;;;;7.47;3.70;;;3.10;99.90;;;;;;5033502;28;20060;-69
2023/04/04 07:12:20;;;;;;;5.93;3.28;;;3.10;99.90;;;;;;5033629;28;20032;-67
2023/04/04 07:14:46;;;;;;;12.90;3.88;;;3.20;99.90;;;;;;5032286;28;20033;-69
2023/04/04 07:17:12;;;;;;;8.88;3.95;;;3.30;99.90;;;;;;5032037;28;20030;-69
2023/04/04 07:19:37;;;;;;;7.97;2.80;;;3.40;99.90;;;;;;5030680;28;20030;-68
2023/04/04 07:22:03;;;;;;;9.02;3.30;;;3.50;99.90;;;;;;5032739;28;20032;-69
2023/04/04 07:24:29;;;;;;;6.95;3.55;;;3.60;99.90;;;;;;5033606;28;20101;-69
2023/04/04 07:26:55;;;;;;;11.02;3.55;;;3.70;99.90;;;;;;5030940;28;20375;-67
2023/04/04 07:29:21;;;;;;;8.20;3.63;;;3.80;99.90;;;;;;5033264;28;20033;-68
2023/04/04 07:31:47;;;;;;;8.40;3.08;;;3.80;99.90;;;;;;5027229;28;20033;-69
2023/04/04 07:34:12;;;;;;;6.63;3.10;;;3.90;99.90;;;;;;5029182;28;20030;-69
2023/04/04 07:36:38;;;;;;;8.13;2.80;;;4.00;99.90;;;;;;5031815;28;20052;-69
2023/04/04 07:39:04;;;;;;;12.15;3.28;;;4.20;99.90;;;;;;5032557;28;20056;-70
2023/04/04 07:41:30;;;;;;;6.25;2.53;;;4.30;99.90;;;;;;5027608;28;20033;-68
2023/04/04 07:43:55;;;;;;;6.53;2.10;;;4.30;99.90;;;;;;5018508;28;20417;-69
2023/04/04 07:46:21;;;;;;;4.82;2.47;;;4.40;99.90;;;;;;5031434;28;20042;-70
2023/04/04 07:48:47;;;;;;;5.55;2.80;;;4.50;99.90;;;;;;5029791;28;20030;-68
2023/04/04 07:51:12;;;;;;;11.27;3.20;;;4.40;99.90;;;;;;5026562;28;20032;-67
2023/04/04 07:53:38;;;;;;;7.07;2.88;;;4.40;99.90;;;;;;5031110;28;20037;-68
2023/04/04 07:56:07;;;;;;;6.95;3.00;;;4.50;99.90;;;;;;5031685;28;20075;-69
2023/04/04 07:58:34;;;;;;;9.00;3.03;;;4.50;99.90;;;;;;5030471;28;20038;-69
2023/04/04 08:01:02;;;;;;;6.50;2.88;;;4.60;99.90;;;;;;5030231;28;20064;-67
2023/04/04 08:03:28;;;;;;;11.90;3.03;;;4.70;99.90;;;;;;5030227;28;20033;-69
2023/04/04 08:05:54;;;;;;;5.38;2.63;;;4.90;99.90;;;;;;5031410;28;20128;-71
2023/04/04 08:08:20;;;;;;;6.35;2.40;;;5.10;99.90;;;;;;5031696;28;20081;-69
2023/04/04 08:10:48;;;;;;;6.55;2.17;;;5.30;99.90;;;;;;5031240;28;20040;-70
2023/04/04 08:13:13;;;;;;;6.72;2.50;;;5.50;99.90;;;;;;5030855;28;20018;-67
2023/04/04 08:15:39;;;;;;;7.18;2.60;;;5.70;99.90;;;;;;5030095;28;20455;-69
2023/04/04 08:18:05;;;;;;;5.43;2.45;;;5.90;99.90;;;;;;5032200;28;20018;-69
2023/04/04 08:20:30;;;;;;;9.32;2.67;;;6.10;99.90;;;;;;5030628;28;20034;-69
2023/04/04 08:22:57;;;;;;;7.07;2.63;;;6.20;99.90;;;;;;5028458;28;20022;-69
2023/04/04 08:25:23;;;;;;;6.45;3.20;;;6.40;99.90;;;;;;5032028;28;20022;-68
2023/04/04 08:27:48;;;;;;;8.35;2.80;;;6.70;99.90;;;;;;5032108;28;20056;-70
2023/04/04 08:30:14;;;;;;;5.57;2.92;;;6.70;99.90;;;;;;5029624;28;20033;-68
2023/04/04 08:32:40;;;;;;;6.13;2.95;;;6.90;99.90;;;;;;5030216;28;20026;-69
2023/04/04 08:35:07;;;;;;;9.38;3.20;;;7.10;99.90;;;;;;5031779;28;20033;-69
2023/04/04 08:37:34;;;;;;;7.80;2.92;;;7.20;99.90;;;;;;5031858;28;20031;-69
2023/04/04 08:40:00;;;;;;;7.53;3.25;;;7.30;99.90;;;;;;5029415;28;20454;-70
2023/04/04 08:42:29;;;;;;;6.97;3.08;;;7.50;99.90;;;;;;5029799;28;20041;-69
2023/04/04 08:44:58;;;;;;;7.18;3.00;;;7.50;99.90;;;;;;5031741;28;20026;-68
2023/04/04 08:47:25;;;;;;;12.07;3.80;;;7.60;99.90;;;;;;5030620;28;20090;-69
2023/04/04 08:49:52;;;;;;;10.15;3.38;;;7.70;99.90;;;;;;5029869;28;20026;-68
2023/04/04 08:52:20;;;;;;;7.60;3.08;;;7.70;99.90;;;;;;5026906;28;20332;-69
2023/04/04 08:54:46;;;;;;;7.60;3.03;;;7.80;99.90;;;;;;5030345;28;20033;-67
2023/04/04 08:57:12;;;;;;;8.55;3.13;;;7.90;99.90;;;;;;5031297;28;20102;-68
2023/04/04 08:59:38;;;;;;;7.25;3.17;;;8.10;99.90;;;;;;5030751;28;20033;-70
2023/04/04 09:02:10;;;;;;;8.65;3.00;;;8.20;99.90;;;;;;5029928;28;20036;-72
2023/04/04 09:04:38;;;;;;;6.05;3.17;;;8.40;99.90;;;;;;5031157;28;20040;-69
2023/04/04 09:07:05;;;;;;;9.55;2.80;;;8.40;99.90;;;;;;5031459;28;20037;-70
2023/04/04 09:09:32;;;;;;;12.60;3.10;;;8.40;99.90;;;;;;5030420;28;20061;-69
2023/04/04 09:12:00;;;;;;;5.25;2.70;;;8.40;99.90;;;;;;5029070;28;20029;-71
2023/04/04 09:14:26;;;;;;;7.47;2.80;;;8.40;99.90;;;;;;5024662;28;20071;-68
2023/04/04 09:16:52;;;;;;;8.48;2.92;;;8.50;99.90;;;;;;5025926;28;20036;-67
2023/04/04 09:19:18;;;;;;;11.15;3.42;;;8.50;99.90;;;;;;5030263;28;20759;-68
2023/04/04 09:21:48;;;;;;;14.75;3.10;;;8.50;99.90;;;;;;5030905;28;20026;-68
2023/04/04 09:24:14;;;;;;;5.20;2.72;;;8.40;99.90;;;;;;5030539;28;20057;-69
2023/04/04 09:26:47;;;;;;;6.90;2.78;;;8.30;99.90;;;;;;5028045;28;20097;-67
2023/04/04 09:29:13;;;;;;;5.05;2.88;;;8.40;99.90;;;;;;5031384;28;20030;-68
2023/04/04 09:31:39;;;;;;;9.73;2.80;;;8.50;99.90;;;;;;5031200;28;20041;-68
2023/04/04 09:34:05;;;;;;;11.70;2.90;;;8.70;99.90;;;;;;5031538;28;20120;-69
2023/04/04 09:36:31;;;;;;;20.33;4.30;;;8.90;99.90;;;;;;5025936;28;20099;-69
2023/04/04 09:38:57;;;;;;;6.20;2.65;;;9.10;99.90;;;;;;5031677;28;20034;-70
2023/04/04 09:41:25;;;;;;;9.85;3.08;;;9.30;99.90;;;;;;5031341;28;20598;-70
2023/04/04 09:43:50;;;;;;;5.82;2.65;;;9.60;99.90;;;;;;5032069;28;21107;-70
2023/04/04 09:46:20;;;;;;;12.18;2.92;;;9.80;99.90;;;;;;5034715;28;20041;-68
2023/04/04 09:48:50;;;;;;;7.25;2.88;;;10.00;99.90;;;;;;5033930;28;20025;-69
2023/04/04 09:51:15;;;;;;;5.57;2.88;;;10.10;99.90;;;;;;5035234;28;20025;-69
2023/04/04 09:53:41;;;;;;;5.35;2.50;;;10.20;99.90;;;;;;5035233;28;20025;-69
2023/04/04 09:56:07;;;;;;;6.40;2.85;;;10.30;99.90;;;;;;5034723;28;20050;-70
2023/04/04 09:58:35;;;;;;;5.88;2.47;;;10.20;99.90;;;;;;5032862;28;20417;-70
2023/04/04 10:01:02;;;;;;;8.60;2.70;;;10.40;99.90;;;;;;5034699;28;20482;-71
2023/04/04 10:03:29;;;;;;;15.55;2.95;;;10.40;99.90;;;;;;5030818;28;20056;-71
2023/04/04 10:06:07;;;;;;;12.45;2.70;;;10.50;99.90;;;;;;5031027;28;20034;-70
2023/04/04 10:08:33;;;;;;;7.97;2.70;;;10.40;99.90;;;;;;5033540;28;20053;-70
2023/04/04 10:11:03;;;;;;;6.45;2.28;;;10.60;99.90;;;;;;5034048;28;20080;-68
2023/04/04 10:13:31;;;;;;;6.18;2.10;;;10.70;99.90;;;;;;5034904;28;20129;-71
2023/04/04 10:15:58;;;;;;;9.90;1.80;;;10.90;99.90;;;;;;5034905;28;20022;-72
2023/04/04 10:18:29;;;;;;;5.25;2.15;;;11.00;99.90;;;;;;5034775;28;20398;-68
2023/04/04 10:20:56;;;;;;;5.57;2.08;;;10.90;99.90;;;;;;5032507;28;20062;-69
2023/04/04 10:23:26;;;;;;;7.35;2.28;;;11.00;99.90;;;;;;5033326;28;20033;-71
2023/04/04 10:25:52;;;;;;;7.25;2.53;;;11.10;99.90;;;;;;5032358;28;20032;-71
2023/04/04 10:28:20;;;;;;;5.72;2.03;;;11.20;99.90;;;;;;5031552;28;20120;-69
2023/04/04 10:31:00;;;;;;;8.00;2.35;;;11.40;99.90;;;;;;5026969;28;20026;-69
2023/04/04 10:33:51;;;;;;;6.00;2.30;;;11.60;99.90;;;;;;5027039;28;20045;-69
2023/04/04 10:36:22;;;;;;;7.20;2.50;;;11.70;99.90;;;;;;5033693;28;20030;-70
2023/04/04 10:39:01;;;;;;;9.50;2.60;;;11.70;99.90;;;;;;5033911;28;20052;-68
2023/04/04 10:41:30;;;;;;;8.88;2.80;;;11.70;99.90;;;;;;5033853;28;20025;-73
2023/04/04 10:43:59;;;;;;;7.65;2.60;;;11.60;99.90;;;;;;5032530;28;20029;-70
2023/04/04 10:46:29;;;;;;;8.05;2.88;;;11.60;99.90;;;;;;5033225;28;20132;-70
2023/04/04 10:48:59;;;;;;;7.40;3.10;;;11.60;99.90;;;;;;5034310;28;20025;-70
2023/04/04 10:51:25;;;;;;;7.55;2.60;;;11.70;99.90;;;;;;5032836;28;20026;-70
2023/04/04 10:53:52;;;;;;;7.18;2.80;;;11.80;99.90;;;;;;5027831;28;20022;-70
2023/04/04 10:56:20;;;;;;;6.15;2.67;;;11.90;99.90;;;;;;5033764;28;20466;-69
2023/04/04 10:58:47;;;;;;;5.63;2.42;;;12.10;99.90;;;;;;5030366;28;20025;-69
2023/04/04 11:01:19;;;;;;;7.28;2.97;;;12.10;99.90;;;;;;5031695;28;20084;-70
2023/04/04 11:04:20;;;;;;;7.95;2.97;;;12.20;99.90;;;;;;5033264;28;20056;-68
2023/04/04 11:07:16;;;;;;;12.20;3.42;;;12.30;99.90;;;;;;5033625;28;20033;-70
2023/04/04 11:09:53;;;;;;;4.32;2.80;;;12.40;99.90;;;;;;5030772;28;20049;-68
2023/04/04 11:12:26;;;;;;;5.03;2.50;;;12.40;99.90;;;;;;5030485;28;20033;-69
2023/04/04 11:15:11;;;;;;;5.65;2.78;;;12.40;99.90;;;;;;5031597;28;20033;-70
2023/04/04 11:17:52;;;;;;;5.88;2.63;;;12.60;99.90;;;;;;5029728;28;20091;-71
2023/04/04 11:20:29;;;;;;;8.70;3.10;;;12.70;99.90;;;;;;5032683;28;20041;-69
2023/04/04 11:23:19;;;;;;;10.43;2.92;;;12.90;99.90;;;;;;5033802;28;20029;-69
2023/04/04 11:25:53;;;;;;;7.15;3.10;;;13.00;99.90;;;;;;5024039;28;20058;-69
2023/04/04 11:28:34;;;;;;;6.28;3.40;;;13.10;99.90;;;;;;5030462;28;20478;-70
2023/04/04 11:31:19;;;;;;;5.00;2.80;;;13.10;99.90;;;;;;5031649;28;20034;-70
2023/04/04 11:34:28;;;;;;;6.60;3.03;;;13.20;99.90;;;;;;5033071;28;20655;-70
2023/04/04 11:36:53;;;;;;;6.78;2.88;;;13.20;99.90;;;;;;5029760;28;20064;-69
2023/04/04 11:39:32;;;;;;;6.85;2.83;;;13.30;99.90;;;;;;5032931;28;20548;-69
2023/04/04 11:42:13;;;;;;;6.78;2.90;;;13.40;99.90;;;;;;5031853;28;20045;-71
2023/04/04 11:45:03;;;;;;;8.80;3.17;;;13.50;99.90;;;;;;5031710;28;20065;-71
2023/04/04 11:47:30;;;;;;;5.72;3.05;;;13.50;99.90;;;;;;5028026;28;20037;-70
2023/04/04 11:49:57;;;;;;;8.55;3.17;;;13.30;99.90;;;;;;5027250;28;20529;-68
2023/04/04 11:52:24;;;;;;;6.95;2.90;;;13.00;99.90;;;;;;5032364;28;20041;-69
2023/04/04 11:54:50;;;;;;;7.57;3.10;;;12.90;99.90;;;;;;5029481;28;20068;-70
2023/04/04 11:57:18;;;;;;;4.63;2.85;;;13.00;99.90;;;;;;5030410;28;20637;-70
2023/04/04 11:59:45;;;;;;;7.93;3.03;;;13.10;99.90;;;;;;5028694;28;20038;-68
2023/04/04 12:02:15;;;;;;;9.60;3.33;;;13.10;99.90;;;;;;5029023;28;20025;-69
2023/04/04 12:04:44;;;;;;;8.57;3.30;;;13.30;99.90;;;;;;5028493;28;20520;-69
2023/04/04 12:07:11;;;;;;;7.25;3.17;;;13.30;99.90;;;;;;5030368;28;20041;-70
2023/04/04 12:09:37;;;;;;;5.30;2.65;;;13.50;99.90;;;;;;5031258;28;20692;-71
2023/04/04 12:12:03;;;;;;;10.18;3.08;;;13.80;99.90;;;;;;5031398;28;20093;-69
2023/04/04 12:14:32;;;;;;;8.02;3.03;;;14.00;99.90;;;;;;5031138;28;20026;-69
2023/04/04 12:17:01;;;;;;;4.15;2.50;;;14.10;99.90;;;;;;5028291;28;20397;-72
2023/04/04 12:19:28;;;;;;;11.43;5.07;;;14.00;99.90;;;;;;5028790;28;20026;-71
2023/04/04 12:21:56;;;;;;;4.82;2.75;;;13.70;99.90;;;;;;5023800;28;20045;-68
2023/04/04 12:24:21;;;;;;;8.07;2.88;;;13.40;99.90;;;;;;5029640;28;20026;-69
2023/04/04 12:26:50;;;;;;;6.05;2.63;;;13.20;99.90;;;;;;5029527;28;20042;-69
2023/04/04 12:29:17;;;;;;;4.15;2.70;;;13.00;99.90;;;;;;5030889;28;20018;-70
2023/04/04 12:31:45;;;;;;;9.00;3.10;;;12.80;99.90;;;;;;5031516;28;20053;-70
2023/04/04 12:34:31;;;;;;;7.70;3.10;;;12.90;99.90;;;;;;5031753;28;20029;-70
2023/04/04 12:36:58;;;;;;;7.32;2.97;;;12.90;99.90;;;;;;5031998;28;20494;-71
2023/04/04 12:39:27;;;;;;;5.50;3.00;;;12.90;99.90;;;;;;5030165;28;20117;-68
2023/04/04 12:41:58;;;;;;;7.68;3.05;;;13.10;99.90;;;;;;5029302;28;20528;-68
2023/04/04 12:44:32;;;;;;;5.55;3.00;;;13.50;99.90;;;;;;5032127;28;20029;-68
2023/04/04 12:46:59;;;;;;;7.60;3.03;;;13.70;99.90;;;;;;5030582;28;20041;-70
2023/04/04 12:49:39;;;;;;;8.65;2.83;;;14.10;99.90;;;;;;5029193;28;20314;-69
2023/04/04 12:52:06;;;;;;;5.00;2.75;;;14.40;99.90;;;;;;5029217;28;20479;-70